createdAt,value
2023-01-29T00:00:11.173Z,6.23
2023-01-29T00:02:37.838Z,6.67
2023-01-29T00:05:25.461Z,7.07
2023-01-29T00:07:55.800Z,7.13
2023-01-29T00:10:22.250Z,6.90
2023-01-29T00:12:48.497Z,6.90
2023-01-29T00:15:14.744Z,7.07
2023-01-29T00:17:40.990Z,7.73
2023-01-29T00:20:07.402Z,7.97
2023-01-29T00:22:33.662Z,7.83
2023-01-29T00:25:00.320Z,7.87
2023-01-29T00:27:26.551Z,8.80
2023-01-29T00:30:11.279Z,7.97
2023-01-29T00:32:37.496Z,8.00
2023-01-29T00:35:03.925Z,8.13
2023-01-29T00:37:30.188Z,8.80
2023-01-29T00:39:56.562Z,8.77
2023-01-29T00:42:41.612Z,8.80
2023-01-29T00:45:08.028Z,9.10
2023-01-29T00:47:35.237Z,8.53
2023-01-29T00:50:02.429Z,9.00
2023-01-29T00:52:29.163Z,9.23
2023-01-29T00:54:57.073Z,8.87
2023-01-29T00:57:23.802Z,9.30
2023-01-29T00:59:50.113Z,9.33
2023-01-29T01:02:38.106Z,9.50
2023-01-29T01:05:06.212Z,9.70
2023-01-29T01:07:32.478Z,9.50
2023-01-29T01:10:17.829Z,10.40
2023-01-29T01:12:44.432Z,9.30
2023-01-29T01:15:10.983Z,9.90
2023-01-29T01:17:37.236Z,9.90
2023-01-29T01:20:03.768Z,10.83
2023-01-29T01:22:31.096Z,9.93
2023-01-29T01:24:57.542Z,10.03
2023-01-29T01:27:23.869Z,10.13
2023-01-29T01:29:50.173Z,10.70
2023-01-29T01:32:16.525Z,10.17
2023-01-29T01:34:45.125Z,10.17
2023-01-29T01:37:11.674Z,10.47
2023-01-29T01:39:37.918Z,10.40
2023-01-29T01:42:04.210Z,10.10
2023-01-29T01:44:49.135Z,10.43
2023-01-29T01:47:16.086Z,10.97
2023-01-29T01:49:42.885Z,11.70
2023-01-29T01:52:09.685Z,11.27
2023-01-29T01:54:36.129Z,11.23
2023-01-29T01:57:15.980Z,11.33
2023-01-29T01:59:49.816Z,11.10
2023-01-29T02:02:35.777Z,10.80
2023-01-29T02:05:21.474Z,10.70
2023-01-29T02:08:07.805Z,11.20
2023-01-29T02:10:42.502Z,11.13
2023-01-29T02:13:09.303Z,10.80
2023-01-29T02:15:35.585Z,10.93
2023-01-29T02:18:01.869Z,10.90
2023-01-29T02:20:29.798Z,11.10
2023-01-29T02:23:23.286Z,10.17
2023-01-29T02:26:06.553Z,10.70
2023-01-29T02:28:39.770Z,11.13
2023-01-29T02:31:22.335Z,10.87
2023-01-29T02:34:00.754Z,10.87
2023-01-29T02:36:30.048Z,11.60
2023-01-29T02:39:02.487Z,10.17
2023-01-29T02:41:38.048Z,10.77
2023-01-29T02:44:17.045Z,11.10
2023-01-29T02:46:51.199Z,11.90
2023-01-29T02:49:35.240Z,11.00
2023-01-29T02:52:01.750Z,12.10
2023-01-29T02:54:39.821Z,11.13
2023-01-29T02:57:17.498Z,11.50
2023-01-29T02:59:59.153Z,11.43
2023-01-29T03:02:31.878Z,11.03
2023-01-29T03:05:03.280Z,10.53
2023-01-29T03:07:44.466Z,11.00
2023-01-29T03:10:21.610Z,11.10
2023-01-29T03:12:50.099Z,11.50
2023-01-29T03:15:24.956Z,11.50
2023-01-29T03:17:54.153Z,11.30
2023-01-29T03:20:22.589Z,11.90
2023-01-29T03:22:50.731Z,10.73
2023-01-29T03:25:36.685Z,11.63
2023-01-29T03:28:22.432Z,11.27
2023-01-29T03:31:09.204Z,11.27
2023-01-29T03:33:52.750Z,10.87
2023-01-29T03:36:37.857Z,11.20
2023-01-29T03:39:05.310Z,10.90
2023-01-29T03:41:43.780Z,12.13
2023-01-29T03:44:15.851Z,11.47
2023-01-29T03:46:48.721Z,11.63
2023-01-29T03:49:34.892Z,12.10
2023-01-29T03:52:01.162Z,11.60
2023-01-29T03:54:40.754Z,11.67
2023-01-29T03:57:26.336Z,11.17
2023-01-29T04:00:04.413Z,12.00
2023-01-29T04:02:34.091Z,11.40
2023-01-29T04:05:04.835Z,11.23
2023-01-29T04:07:33.375Z,11.77
2023-01-29T04:10:15.452Z,11.80
2023-01-29T04:12:54.243Z,12.20
2023-01-29T04:15:22.277Z,12.33
2023-01-29T04:17:50.035Z,12.10
2023-01-29T04:20:16.746Z,12.03
2023-01-29T04:22:44.991Z,11.30
2023-01-29T04:25:15.744Z,11.97
2023-01-29T04:27:51.184Z,11.93
2023-01-29T04:30:24.014Z,12.30
2023-01-29T04:32:57.329Z,11.57
2023-01-29T04:35:28.226Z,12.23
2023-01-29T04:38:13.260Z,12.07
2023-01-29T04:40:46.302Z,12.70
2023-01-29T04:43:29.857Z,12.17
2023-01-29T04:46:09.020Z,14.47
2023-01-29T04:48:41.064Z,13.33
2023-01-29T04:51:10.622Z,12.80
2023-01-29T04:53:36.836Z,11.53
2023-01-29T04:56:09.507Z,12.20
2023-01-29T04:58:38.239Z,12.33
2023-01-29T05:01:06.609Z,13.17
2023-01-29T05:03:33.900Z,12.90
2023-01-29T05:06:00.752Z,12.50
2023-01-29T05:08:28.249Z,12.73
2023-01-29T05:10:55.395Z,12.53
2023-01-29T05:13:22.263Z,12.80
2023-01-29T05:15:50.113Z,13.00
2023-01-29T05:18:16.515Z,12.93
2023-01-29T05:20:43.260Z,13.47
2023-01-29T05:23:19.722Z,13.30
2023-01-29T05:25:46.801Z,13.83
2023-01-29T05:28:18.970Z,13.63
2023-01-29T05:30:47.025Z,13.33
2023-01-29T05:33:13.267Z,12.90
2023-01-29T05:35:39.510Z,13.77
2023-01-29T05:38:05.720Z,12.83
2023-01-29T05:40:31.936Z,13.80
2023-01-29T05:42:58.144Z,14.90
2023-01-29T05:45:24.546Z,14.13
2023-01-29T05:47:50.812Z,13.57
2023-01-29T05:50:17.436Z,13.67
2023-01-29T05:52:44.023Z,13.97
2023-01-29T05:55:10.571Z,13.93
2023-01-29T05:57:36.794Z,15.10
2023-01-29T06:00:04.385Z,13.73
2023-01-29T06:02:31.455Z,14.00
2023-01-29T06:04:57.738Z,14.03
2023-01-29T06:07:23.979Z,14.07
2023-01-29T06:09:50.195Z,15.00
2023-01-29T06:12:16.416Z,14.47
2023-01-29T06:14:42.619Z,14.27
2023-01-29T06:17:08.850Z,14.23
2023-01-29T06:19:35.250Z,14.43
2023-01-29T06:22:01.541Z,14.80
2023-01-29T06:24:27.786Z,14.87
2023-01-29T06:26:54.038Z,14.07
2023-01-29T06:29:20.243Z,14.37
2023-01-29T06:31:46.590Z,14.37
2023-01-29T06:34:12.852Z,15.23
2023-01-29T06:36:39.126Z,15.10
2023-01-29T06:39:05.352Z,15.40
2023-01-29T06:41:31.585Z,14.70
2023-01-29T06:43:57.846Z,14.37
2023-01-29T06:46:24.100Z,14.97
2023-01-29T06:48:50.330Z,14.80
2023-01-29T06:51:16.958Z,15.10
2023-01-29T06:53:45.796Z,14.83
2023-01-29T06:56:12.645Z,15.33
2023-01-29T06:58:38.981Z,15.23
2023-01-29T07:01:06.357Z,16.20
2023-01-29T07:03:32.884Z,14.83
2023-01-29T07:05:59.196Z,14.97
2023-01-29T07:08:25.415Z,14.23
2023-01-29T07:10:51.666Z,14.90
2023-01-29T07:13:17.890Z,15.53
2023-01-29T07:15:44.592Z,15.53
2023-01-29T07:18:13.617Z,16.17
2023-01-29T07:20:40.887Z,16.57
2023-01-29T07:23:07.578Z,15.63
2023-01-29T07:25:34.294Z,15.53
2023-01-29T07:28:01.217Z,16.17
2023-01-29T07:30:27.488Z,16.07
2023-01-29T07:32:53.708Z,15.63
2023-01-29T07:35:19.956Z,15.27
2023-01-29T07:37:49.200Z,16.20
2023-01-29T07:40:15.731Z,15.53
2023-01-29T07:42:43.949Z,16.40
2023-01-29T07:45:10.769Z,15.93
2023-01-29T07:47:37.009Z,16.17
2023-01-29T07:50:03.710Z,16.83
2023-01-29T07:52:30.652Z,16.87
2023-01-29T07:54:56.891Z,16.13
2023-01-29T07:57:23.193Z,16.50
2023-01-29T07:59:49.415Z,16.47
2023-01-29T08:02:15.839Z,16.40
2023-01-29T08:04:42.077Z,16.60
2023-01-29T08:07:09.415Z,15.53
2023-01-29T08:09:36.292Z,17.30
2023-01-29T08:12:03.695Z,17.23
2023-01-29T08:14:29.936Z,16.63
2023-01-29T08:16:56.171Z,16.47
2023-01-29T08:19:22.379Z,16.47
2023-01-29T08:21:48.785Z,16.57
2023-01-29T08:24:15.063Z,15.97
2023-01-29T08:26:41.293Z,16.87
2023-01-29T08:29:07.520Z,16.33
2023-01-29T08:31:33.838Z,16.80
2023-01-29T08:34:00.165Z,16.20
2023-01-29T08:36:26.421Z,16.50
2023-01-29T08:38:52.682Z,16.63
2023-01-29T08:41:18.884Z,16.00
2023-01-29T08:43:46.458Z,16.23
2023-01-29T08:46:12.773Z,16.70
2023-01-29T08:48:39.064Z,16.20
2023-01-29T08:51:05.499Z,15.93
2023-01-29T08:53:31.903Z,16.00
2023-01-29T08:55:58.182Z,16.27
2023-01-29T08:58:24.429Z,16.63
2023-01-29T09:00:50.674Z,16.87
2023-01-29T09:03:16.938Z,15.30
2023-01-29T09:05:43.230Z,16.13
2023-01-29T09:08:09.722Z,15.27
2023-01-29T09:10:36.008Z,15.80
2023-01-29T09:13:02.264Z,16.00
2023-01-29T09:15:28.589Z,15.17
2023-01-29T09:17:54.863Z,16.10
2023-01-29T09:20:21.192Z,16.17
2023-01-29T09:22:47.601Z,15.93
2023-01-29T09:25:14.191Z,14.80
2023-01-29T09:27:40.671Z,15.53
2023-01-29T09:30:07.112Z,14.97
2023-01-29T09:35:23.153Z,14.50
2023-01-29T09:37:49.781Z,15.70
2023-01-29T09:40:21.687Z,13.93
2023-01-29T09:42:51.997Z,14.63
2023-01-29T09:45:24.536Z,14.70
2023-01-29T09:47:51.179Z,14.07
2023-01-29T09:50:23.701Z,14.63
2023-01-29T09:53:02.428Z,14.53
2023-01-29T09:55:30.097Z,13.97
2023-01-29T09:57:58.463Z,14.70
2023-01-29T10:00:27.842Z,13.80
2023-01-29T10:02:57.130Z,13.80
2023-01-29T10:05:28.219Z,14.33
2023-01-29T10:08:08.405Z,14.37
2023-01-29T10:10:49.704Z,14.00
2023-01-29T10:13:34.742Z,12.97
2023-01-29T10:16:19.462Z,13.20
2023-01-29T10:18:54.152Z,13.20
2023-01-29T10:21:29.367Z,13.73
2023-01-29T10:24:00.671Z,12.70
2023-01-29T10:26:27.149Z,12.87
2023-01-29T10:28:55.302Z,13.53
2023-01-29T10:31:27.760Z,12.10
2023-01-29T10:34:03.327Z,12.97
2023-01-29T10:36:34.079Z,12.90
2023-01-29T10:39:00.321Z,12.33
2023-01-29T10:41:45.495Z,11.70
2023-01-29T10:44:24.815Z,12.33
2023-01-29T10:47:06.221Z,11.53
2023-01-29T10:49:41.803Z,11.83
2023-01-29T10:52:17.447Z,11.63
2023-01-29T10:54:43.861Z,10.90
2023-01-29T10:57:10.142Z,11.70
2023-01-29T10:59:48.467Z,11.17
2023-01-29T11:02:19.608Z,11.13
2023-01-29T11:04:46.209Z,12.77
2023-01-29T11:07:13.653Z,11.60
2023-01-29T11:09:42.976Z,11.47
2023-01-29T11:12:16.596Z,11.07
2023-01-29T11:14:45.598Z,11.77
2023-01-29T11:17:16.691Z,10.33
2023-01-29T11:19:44.322Z,10.83
2023-01-29T11:22:15.786Z,10.80
2023-01-29T11:24:42.292Z,11.63
2023-01-29T11:27:16.311Z,10.87
2023-01-29T11:29:47.917Z,10.77
2023-01-29T11:32:23.575Z,11.47
2023-01-29T11:35:16.367Z,11.57
2023-01-29T11:37:43.700Z,11.67
2023-01-29T11:40:19.158Z,10.83
2023-01-29T11:42:46.296Z,11.37
2023-01-29T11:45:26.324Z,11.00
2023-01-29T11:47:53.614Z,10.23
2023-01-29T11:50:21.626Z,10.70
2023-01-29T11:52:48.237Z,10.87
2023-01-29T11:55:25.292Z,11.20
2023-01-29T11:57:54.140Z,10.33
2023-01-29T12:00:22.637Z,11.17
2023-01-29T12:02:53.432Z,10.03
2023-01-29T12:05:22.014Z,10.87
2023-01-29T12:07:49.549Z,10.40
2023-01-29T12:10:31.742Z,10.53
2023-01-29T12:13:07.062Z,10.93
2023-01-29T12:15:33.345Z,9.83
2023-01-29T12:18:13.955Z,11.33
2023-01-29T12:20:46.541Z,10.27
2023-01-29T12:23:32.239Z,10.10
2023-01-29T12:26:15.715Z,10.37
2023-01-29T12:29:00.840Z,10.27
2023-01-29T12:31:39.192Z,10.70
2023-01-29T12:34:10.937Z,10.47
2023-01-29T12:36:37.151Z,11.53
2023-01-29T12:39:03.423Z,10.67
2023-01-29T12:41:36.463Z,10.23
2023-01-29T12:44:05.782Z,10.47
2023-01-29T12:46:41.491Z,10.33
2023-01-29T12:49:14.362Z,10.13
2023-01-29T12:51:43.990Z,10.73
2023-01-29T12:54:14.238Z,10.80
2023-01-29T12:56:48.583Z,10.93
2023-01-29T12:59:24.448Z,10.47
2023-01-29T13:01:58.370Z,9.73
2023-01-29T13:04:38.217Z,10.57
2023-01-29T13:07:11.917Z,9.80
2023-01-29T13:09:39.691Z,10.67
2023-01-29T13:12:14.680Z,10.67
2023-01-29T13:14:46.000Z,10.57
2023-01-29T13:17:30.328Z,11.30
2023-01-29T13:19:58.730Z,9.73
2023-01-29T13:22:32.340Z,10.57
2023-01-29T13:25:04.994Z,10.27
2023-01-29T13:27:33.289Z,11.23
2023-01-29T13:29:59.575Z,10.63
2023-01-29T13:32:27.215Z,10.93
2023-01-29T13:34:55.475Z,10.23
2023-01-29T13:37:28.038Z,10.87
2023-01-29T13:39:58.083Z,11.73
2023-01-29T13:42:32.988Z,10.10
2023-01-29T13:45:02.665Z,10.70
2023-01-29T13:47:30.195Z,10.87
2023-01-29T13:50:07.692Z,11.50
2023-01-29T13:52:36.085Z,10.67
2023-01-29T13:55:23.808Z,10.37
2023-01-29T13:57:54.736Z,11.33
2023-01-29T14:00:22.144Z,12.50
2023-01-29T14:03:08.724Z,11.13
2023-01-29T14:05:40.984Z,11.30
2023-01-29T14:08:13.212Z,12.17
2023-01-29T14:10:39.988Z,11.03
2023-01-29T14:13:18.509Z,11.77
2023-01-29T14:16:05.016Z,13.07
2023-01-29T14:18:32.365Z,13.47
2023-01-29T14:21:00.173Z,14.27
2023-01-29T14:24:01.745Z,13.77
2023-01-29T14:26:32.725Z,12.73
2023-01-29T14:29:39.311Z,14.10
2023-01-29T14:32:12.554Z,13.20
2023-01-29T14:34:42.818Z,14.10
2023-01-29T14:37:14.982Z,14.30
2023-01-29T14:39:44.221Z,14.83
2023-01-29T14:42:21.031Z,12.77
2023-01-29T14:44:48.557Z,14.13
2023-01-29T14:47:18.610Z,14.03
2023-01-29T14:49:48.299Z,14.67
2023-01-29T14:52:14.887Z,13.40
2023-01-29T14:54:42.129Z,15.00
2023-01-29T14:57:12.535Z,14.90
2023-01-29T14:59:43.493Z,14.30
2023-01-29T15:02:20.237Z,14.03
2023-01-29T15:04:48.596Z,14.03
2023-01-29T15:07:19.516Z,15.37
2023-01-29T15:09:47.543Z,13.97
2023-01-29T15:12:32.294Z,14.53
2023-01-29T15:15:03.327Z,13.47
2023-01-29T15:17:52.378Z,13.37
2023-01-29T15:20:29.443Z,13.10
2023-01-29T15:22:55.893Z,14.17
2023-01-29T15:25:22.299Z,13.37
2023-01-29T15:27:49.028Z,13.47
2023-01-29T15:30:19.881Z,13.93
2023-01-29T15:32:47.852Z,13.17
2023-01-29T15:35:26.174Z,13.07
2023-01-29T15:37:59.696Z,13.10
2023-01-29T15:40:26.028Z,13.37
2023-01-29T15:42:52.252Z,12.50
2023-01-29T15:45:22.721Z,13.83
2023-01-29T15:47:49.038Z,12.57
2023-01-29T15:50:15.320Z,13.37
2023-01-29T15:52:41.746Z,12.77
2023-01-29T15:55:10.091Z,12.90
2023-01-29T15:57:37.618Z,12.83
2023-01-29T16:00:04.703Z,13.17
2023-01-29T16:02:41.166Z,12.87
2023-01-29T16:05:11.818Z,13.13
2023-01-29T16:07:38.083Z,12.87
2023-01-29T16:10:04.880Z,13.20
2023-01-29T16:12:32.895Z,12.53
2023-01-29T16:15:00.760Z,13.20
2023-01-29T16:17:35.823Z,13.83
2023-01-29T16:20:05.297Z,13.17
2023-01-29T16:22:33.688Z,13.60
2023-01-29T16:25:07.718Z,13.03
2023-01-29T16:27:34.693Z,12.53
2023-01-29T16:30:02.122Z,13.57
2023-01-29T16:32:29.445Z,13.43
2023-01-29T16:34:57.838Z,14.03
2023-01-29T16:37:26.497Z,13.53
2023-01-29T16:39:52.900Z,13.67
2023-01-29T16:42:21.888Z,13.43
2023-01-29T16:44:52.704Z,13.77
2023-01-29T16:47:23.485Z,15.10
2023-01-29T16:49:50.864Z,13.47
2023-01-29T16:52:27.917Z,12.97
2023-01-29T16:55:01.958Z,13.20
2023-01-29T16:57:33.049Z,13.20
2023-01-29T17:00:01.470Z,13.17
2023-01-29T17:02:29.356Z,12.93
2023-01-29T17:04:58.498Z,13.43
2023-01-29T17:07:24.957Z,13.27
2023-01-29T17:09:53.548Z,13.10
2023-01-29T17:12:21.135Z,14.03
2023-01-29T17:14:55.127Z,14.17
2023-01-29T17:17:21.795Z,13.77
2023-01-29T17:19:48.043Z,13.87
2023-01-29T17:22:15.066Z,14.20
2023-01-29T17:24:41.729Z,13.87
2023-01-29T17:27:11.365Z,13.43
2023-01-29T17:29:38.237Z,13.70
2023-01-29T17:32:04.675Z,13.83
2023-01-29T17:34:30.958Z,12.70
2023-01-29T17:36:57.400Z,13.53
2023-01-29T17:39:25.022Z,14.03
2023-01-29T17:41:55.327Z,12.47
2023-01-29T17:44:21.997Z,13.43
2023-01-29T17:46:48.418Z,13.17
2023-01-29T17:49:21.607Z,12.70
2023-01-29T17:51:49.138Z,12.40
2023-01-29T17:54:15.430Z,13.13
2023-01-29T17:56:42.497Z,13.80
2023-01-29T17:59:13.092Z,13.10
2023-01-29T18:01:45.065Z,12.70
2023-01-29T18:04:11.733Z,12.80
2023-01-29T18:06:39.308Z,12.37
2023-01-29T18:09:12.082Z,12.40
2023-01-29T18:11:38.330Z,12.97
2023-01-29T18:14:13.954Z,12.40
2023-01-29T18:16:42.049Z,11.93
2023-01-29T18:19:16.231Z,12.47
2023-01-29T18:21:42.528Z,12.43
2023-01-29T18:24:08.762Z,12.40
2023-01-29T18:26:35.969Z,12.77
2023-01-29T18:29:02.410Z,13.13
2023-01-29T18:31:28.959Z,13.37
2023-01-29T18:33:55.198Z,12.30
2023-01-29T18:36:21.416Z,12.20
2023-01-29T18:38:47.696Z,11.77
2023-01-29T18:41:14.054Z,12.30
2023-01-29T18:43:41.384Z,12.10
2023-01-29T18:46:08.011Z,11.50
2023-01-29T18:48:34.640Z,12.07
2023-01-29T18:51:01.768Z,12.63
2023-01-29T18:53:28.087Z,12.27
2023-01-29T18:55:55.867Z,12.40
2023-01-29T18:58:26.146Z,11.53
2023-01-29T19:00:55.717Z,12.37
2023-01-29T19:03:21.997Z,11.07
2023-01-29T19:05:48.269Z,11.53
2023-01-29T19:08:14.690Z,11.27
2023-01-29T19:10:41.070Z,10.67
2023-01-29T19:13:07.335Z,10.93
2023-01-29T19:15:33.728Z,10.53
2023-01-29T19:18:00.707Z,11.33
2023-01-29T19:20:26.989Z,10.53
2023-01-29T19:22:53.284Z,11.20
2023-01-29T19:25:19.964Z,10.23
2023-01-29T19:27:46.438Z,10.77
2023-01-29T19:30:13.002Z,10.27
2023-01-29T19:32:39.945Z,10.60
2023-01-29T19:35:06.288Z,10.93
2023-01-29T19:37:32.544Z,9.47
2023-01-29T19:39:58.800Z,9.57
2023-01-29T19:42:25.097Z,9.63
2023-01-29T19:44:52.242Z,9.87
2023-01-29T19:47:18.883Z,9.50
2023-01-29T19:49:45.293Z,10.07
2023-01-29T19:52:38.475Z,9.47
2023-01-29T19:55:15.772Z,9.53
2023-01-29T19:57:42.200Z,9.30
2023-01-29T20:00:08.972Z,9.53
2023-01-29T20:02:36.027Z,9.20
2023-01-29T20:05:03.512Z,8.60
2023-01-29T20:07:29.745Z,8.77
2023-01-29T20:09:55.959Z,9.50
2023-01-29T20:12:22.418Z,8.17
2023-01-29T20:14:49.055Z,8.43
2023-01-29T20:17:15.856Z,8.90
2023-01-29T20:19:43.024Z,9.10
2023-01-29T20:22:09.395Z,9.40
2023-01-29T20:24:39.685Z,8.33
2023-01-29T20:27:06.095Z,9.20
2023-01-29T20:29:32.471Z,8.93
2023-01-29T20:32:00.268Z,8.23
2023-01-29T20:34:26.513Z,8.50
2023-01-29T20:36:52.727Z,7.80
2023-01-29T20:39:19.019Z,7.80
2023-01-29T20:41:45.247Z,8.17
2023-01-29T20:44:11.485Z,7.70
2023-01-29T20:46:38.433Z,8.30
2023-01-29T20:49:06.804Z,7.63
2023-01-29T20:51:33.449Z,7.80
2023-01-29T20:53:59.752Z,8.10
2023-01-29T20:56:32.192Z,8.30
2023-01-29T20:59:04.589Z,8.30
2023-01-29T21:01:30.814Z,8.30
2023-01-29T21:03:57.115Z,8.13
2023-01-29T21:06:24.862Z,8.00
2023-01-29T21:08:51.211Z,8.43
2023-01-29T21:11:17.532Z,8.40
2023-01-29T21:13:44.034Z,7.97
2023-01-29T21:16:11.280Z,7.57
2023-01-29T21:18:37.745Z,7.83
2023-01-29T21:21:04.256Z,7.80
2023-01-29T21:23:33.574Z,8.33
2023-01-29T21:26:06.785Z,7.60
2023-01-29T21:28:33.085Z,8.00
2023-01-29T21:31:14.348Z,8.83
2023-01-29T21:33:40.591Z,8.27
2023-01-29T21:36:07.451Z,8.17
2023-01-29T21:38:33.772Z,8.40
2023-01-29T21:41:00.802Z,7.73
2023-01-29T21:43:27.068Z,8.00
2023-01-29T21:45:57.108Z,7.90
2023-01-29T21:48:23.347Z,7.93
2023-01-29T21:50:50.132Z,8.77
2023-01-29T21:53:17.316Z,8.20
2023-01-29T21:55:44.880Z,8.07
2023-01-29T21:58:13.442Z,8.70
2023-01-29T22:00:40.547Z,8.47
2023-01-29T22:03:06.809Z,8.60
2023-01-29T22:05:34.050Z,8.53
2023-01-29T22:08:00.397Z,9.27
2023-01-29T22:10:28.123Z,8.83
2023-01-29T22:12:54.452Z,9.13
2023-01-29T22:15:23.476Z,9.20
2023-01-29T22:17:50.018Z,8.70
2023-01-29T22:20:16.757Z,9.53
2023-01-29T22:22:43.414Z,9.33
2023-01-29T22:25:10.222Z,8.20
2023-01-29T22:27:36.750Z,8.60
2023-01-29T22:30:03.418Z,8.90
2023-01-29T22:32:31.344Z,8.93
2023-01-29T22:34:57.577Z,8.80
2023-01-29T22:37:23.814Z,8.80
2023-01-29T22:39:50.032Z,8.60
2023-01-29T22:42:18.132Z,8.93
2023-01-29T22:44:44.399Z,8.60
2023-01-29T22:47:10.730Z,8.70
2023-01-29T22:49:36.972Z,8.80
2023-01-29T22:52:12.390Z,8.93
2023-01-29T22:54:42.647Z,8.87
2023-01-29T22:57:13.198Z,8.57
2023-01-29T22:59:39.656Z,8.63
2023-01-29T23:02:06.477Z,8.60
2023-01-29T23:04:32.941Z,9.50
2023-01-29T23:06:59.396Z,8.43
2023-01-29T23:09:25.682Z,8.53
2023-01-29T23:11:51.966Z,8.70
2023-01-29T23:14:18.237Z,8.70
2023-01-29T23:16:44.474Z,8.67
2023-01-29T23:19:11.340Z,8.40
2023-01-29T23:21:42.420Z,8.23
2023-01-29T23:24:09.090Z,8.23
2023-01-29T23:26:53.896Z,8.30
2023-01-29T23:29:20.402Z,8.87
2023-01-29T23:31:46.739Z,8.07
2023-01-29T23:34:13.763Z,8.50
2023-01-29T23:36:40.001Z,8.27
2023-01-29T23:39:06.687Z,8.97
2023-01-29T23:41:33.285Z,8.23
2023-01-29T23:43:59.627Z,8.73
2023-01-29T23:46:25.909Z,8.13
2023-01-29T23:48:52.244Z,8.67
2023-01-29T23:51:18.743Z,8.70
2023-01-29T23:53:45.008Z,9.33
2023-01-29T23:56:11.301Z,9.07
2023-01-29T23:58:37.556Z,9.37
